sensor_id;sensor_type;location;lat;lon;timestamp;P1;durP1;ratioP1;P2;durP2;ratioP2
35993;SDS011;22066;54.274;18.578;2022-12-18T00:00:03;35.83;;;11.17;;
35993;SDS011;22066;54.274;18.578;2022-12-18T00:02:29;21.25;;;8.00;;
35993;SDS011;22066;54.274;18.578;2022-12-18T00:04:56;33.40;;;11.73;;
35993;SDS011;22066;54.274;18.578;2022-12-18T00:07:22;29.73;;;9.17;;
35993;SDS011;22066;54.274;18.578;2022-12-18T00:09:48;28.23;;;10.17;;
35993;SDS011;22066;54.274;18.578;2022-12-18T00:12:14;27.53;;;9.70;;
35993;SDS011;22066;54.274;18.578;2022-12-18T00:14:40;38.70;;;11.13;;
35993;SDS011;22066;54.274;18.578;2022-12-18T00:17:09;33.47;;;11.93;;
35993;SDS011;22066;54.274;18.578;2022-12-18T00:19:35;33.50;;;11.33;;
35993;SDS011;22066;54.274;18.578;2022-12-18T00:22:01;26.43;;;9.60;;
35993;SDS011;22066;54.274;18.578;2022-12-18T00:24:27;28.33;;;9.83;;
35993;SDS011;22066;54.274;18.578;2022-12-18T00:26:53;30.53;;;11.37;;
35993;SDS011;22066;54.274;18.578;2022-12-18T00:29:19;24.43;;;8.93;;
35993;SDS011;22066;54.274;18.578;2022-12-18T00:31:45;28.47;;;9.53;;
35993;SDS011;22066;54.274;18.578;2022-12-18T00:34:12;26.23;;;9.67;;
35993;SDS011;22066;54.274;18.578;2022-12-18T00:36:38;36.20;;;11.23;;
35993;SDS011;22066;54.274;18.578;2022-12-18T00:39:04;28.33;;;8.63;;
35993;SDS011;22066;54.274;18.578;2022-12-18T00:41:31;20.80;;;8.80;;
35993;SDS011;22066;54.274;18.578;2022-12-18T00:44:16;26.87;;;8.47;;
35993;SDS011;22066;54.274;18.578;2022-12-18T00:46:43;31.20;;;9.13;;
35993;SDS011;22066;54.274;18.578;2022-12-18T00:49:09;19.53;;;8.57;;
35993;SDS011;22066;54.274;18.578;2022-12-18T00:51:35;19.50;;;7.27;;
35993;SDS011;22066;54.274;18.578;2022-12-18T00:54:01;24.37;;;8.53;;
35993;SDS011;22066;54.274;18.578;2022-12-18T00:56:27;24.10;;;8.47;;
35993;SDS011;22066;54.274;18.578;2022-12-18T00:58:53;25.73;;;8.20;;
35993;SDS011;22066;54.274;18.578;2022-12-18T01:01:19;23.47;;;8.37;;
35993;SDS011;22066;54.274;18.578;2022-12-18T01:03:45;19.17;;;6.60;;
35993;SDS011;22066;54.274;18.578;2022-12-18T01:06:12;22.87;;;7.53;;
35993;SDS011;22066;54.274;18.578;2022-12-18T01:08:39;25.20;;;7.63;;
35993;SDS011;22066;54.274;18.578;2022-12-18T01:11:08;19.53;;;8.63;;
35993;SDS011;22066;54.274;18.578;2022-12-18T01:13:35;20.27;;;7.10;;
35993;SDS011;22066;54.274;18.578;2022-12-18T01:16:01;18.30;;;7.63;;
35993;SDS011;22066;54.274;18.578;2022-12-18T01:18:27;18.07;;;6.90;;
35993;SDS011;22066;54.274;18.578;2022-12-18T01:20:53;20.20;;;7.87;;
35993;SDS011;22066;54.274;18.578;2022-12-18T01:23:19;21.47;;;7.00;;
35993;SDS011;22066;54.274;18.578;2022-12-18T01:25:45;24.03;;;8.47;;
35993;SDS011;22066;54.274;18.578;2022-12-18T01:28:11;24.13;;;7.53;;
35993;SDS011;22066;54.274;18.578;2022-12-18T01:30:37;21.77;;;6.50;;
35993;SDS011;22066;54.274;18.578;2022-12-18T01:33:04;22.27;;;6.73;;
35993;SDS011;22066;54.274;18.578;2022-12-18T01:35:30;15.87;;;6.13;;
35993;SDS011;22066;54.274;18.578;2022-12-18T01:37:56;24.20;;;8.13;;
35993;SDS011;22066;54.274;18.578;2022-12-18T01:40:22;25.03;;;7.77;;
35993;SDS011;22066;54.274;18.578;2022-12-18T01:42:50;19.23;;;6.93;;
35993;SDS011;22066;54.274;18.578;2022-12-18T01:45:24;18.13;;;6.82;;
35993;SDS011;22066;54.274;18.578;2022-12-18T01:47:52;17.73;;;6.23;;
35993;SDS011;22066;54.274;18.578;2022-12-18T01:53:06;26.20;;;7.40;;
35993;SDS011;22066;54.274;18.578;2022-12-18T01:55:32;22.67;;;7.57;;
35993;SDS011;22066;54.274;18.578;2022-12-18T01:58:01;19.80;;;6.20;;
35993;SDS011;22066;54.274;18.578;2022-12-18T02:00:27;25.27;;;6.77;;
35993;SDS011;22066;54.274;18.578;2022-12-18T02:02:53;15.20;;;6.90;;
35993;SDS011;22066;54.274;18.578;2022-12-18T02:05:23;21.80;;;7.83;;
35993;SDS011;22066;54.274;18.578;2022-12-18T02:10:48;18.17;;;8.23;;
35993;SDS011;22066;54.274;18.578;2022-12-18T02:13:19;19.43;;;7.47;;
35993;SDS011;22066;54.274;18.578;2022-12-18T02:18:22;17.60;;;7.70;;
35993;SDS011;22066;54.274;18.578;2022-12-18T02:20:54;21.00;;;7.50;;
35993;SDS011;22066;54.274;18.578;2022-12-18T02:23:28;29.80;;;8.27;;
35993;SDS011;22066;54.274;18.578;2022-12-18T02:26:12;19.93;;;7.20;;
35993;SDS011;22066;54.274;18.578;2022-12-18T02:28:41;30.10;;;6.43;;
35993;SDS011;22066;54.274;18.578;2022-12-18T02:31:09;23.05;;;7.22;;
35993;SDS011;22066;54.274;18.578;2022-12-18T02:33:36;22.33;;;7.90;;
35993;SDS011;22066;54.274;18.578;2022-12-18T02:36:03;14.63;;;5.97;;
35993;SDS011;22066;54.274;18.578;2022-12-18T02:38:30;21.90;;;7.73;;
35993;SDS011;22066;54.274;18.578;2022-12-18T02:40:57;23.63;;;6.80;;
35993;SDS011;22066;54.274;18.578;2022-12-18T02:43:23;24.83;;;8.43;;
35993;SDS011;22066;54.274;18.578;2022-12-18T02:45:50;20.83;;;8.80;;
35993;SDS011;22066;54.274;18.578;2022-12-18T02:50:56;23.53;;;6.20;;
35993;SDS011;22066;54.274;18.578;2022-12-18T02:53:43;25.57;;;6.90;;
35993;SDS011;22066;54.274;18.578;2022-12-18T02:56:20;28.83;;;8.17;;
35993;SDS011;22066;54.274;18.578;2022-12-18T03:01:15;30.23;;;6.90;;
35993;SDS011;22066;54.274;18.578;2022-12-18T03:03:51;17.73;;;6.50;;
35993;SDS011;22066;54.274;18.578;2022-12-18T03:08:51;26.43;;;8.90;;
35993;SDS011;22066;54.274;18.578;2022-12-18T03:11:18;20.60;;;7.57;;
35993;SDS011;22066;54.274;18.578;2022-12-18T03:14:05;24.80;;;7.97;;
35993;SDS011;22066;54.274;18.578;2022-12-18T03:16:32;25.20;;;8.32;;
35993;SDS011;22066;54.274;18.578;2022-12-18T03:19:18;18.00;;;6.50;;
35993;SDS011;22066;54.274;18.578;2022-12-18T03:21:45;23.47;;;7.43;;
35993;SDS011;22066;54.274;18.578;2022-12-18T03:24:12;16.38;;;5.95;;
35993;SDS011;22066;54.274;18.578;2022-12-18T03:26:41;23.73;;;6.78;;
35993;SDS011;22066;54.274;18.578;2022-12-18T03:29:09;20.33;;;7.50;;
35993;SDS011;22066;54.274;18.578;2022-12-18T03:31:39;17.97;;;6.00;;
35993;SDS011;22066;54.274;18.578;2022-12-18T03:34:09;16.40;;;6.30;;
35993;SDS011;22066;54.274;18.578;2022-12-18T03:36:35;16.13;;;6.47;;
35993;SDS011;22066;54.274;18.578;2022-12-18T03:39:01;21.83;;;6.53;;
35993;SDS011;22066;54.274;18.578;2022-12-18T03:44:09;19.73;;;6.23;;
35993;SDS011;22066;54.274;18.578;2022-12-18T03:46:40;17.50;;;5.70;;
35993;SDS011;22066;54.274;18.578;2022-12-18T03:54:30;17.17;;;7.47;;
35993;SDS011;22066;54.274;18.578;2022-12-18T03:56:59;24.50;;;8.10;;
35993;SDS011;22066;54.274;18.578;2022-12-18T03:59:27;19.67;;;6.57;;
35993;SDS011;22066;54.274;18.578;2022-12-18T04:01:53;19.87;;;6.20;;
35993;SDS011;22066;54.274;18.578;2022-12-18T04:04:20;21.57;;;7.57;;
35993;SDS011;22066;54.274;18.578;2022-12-18T04:06:47;18.27;;;7.13;;
35993;SDS011;22066;54.274;18.578;2022-12-18T04:09:14;19.87;;;6.97;;
35993;SDS011;22066;54.274;18.578;2022-12-18T04:11:41;19.30;;;6.93;;
35993;SDS011;22066;54.274;18.578;2022-12-18T04:14:09;19.13;;;6.80;;
35993;SDS011;22066;54.274;18.578;2022-12-18T04:16:35;24.50;;;6.40;;
35993;SDS011;22066;54.274;18.578;2022-12-18T04:19:01;15.93;;;6.43;;
35993;SDS011;22066;54.274;18.578;2022-12-18T04:21:27;19.27;;;6.17;;
35993;SDS011;22066;54.274;18.578;2022-12-18T04:23:53;20.27;;;6.97;;
35993;SDS011;22066;54.274;18.578;2022-12-18T04:26:19;24.97;;;8.73;;
35993;SDS011;22066;54.274;18.578;2022-12-18T04:28:45;19.07;;;6.87;;
35993;SDS011;22066;54.274;18.578;2022-12-18T04:31:11;20.67;;;6.60;;
35993;SDS011;22066;54.274;18.578;2022-12-18T04:33:37;20.40;;;7.23;;
35993;SDS011;22066;54.274;18.578;2022-12-18T04:36:04;19.77;;;6.60;;
35993;SDS011;22066;54.274;18.578;2022-12-18T04:38:30;21.80;;;6.80;;
35993;SDS011;22066;54.274;18.578;2022-12-18T04:40:56;18.67;;;5.93;;
35993;SDS011;22066;54.274;18.578;2022-12-18T04:43:22;12.30;;;5.77;;
35993;SDS011;22066;54.274;18.578;2022-12-18T04:45:48;17.90;;;6.43;;
35993;SDS011;22066;54.274;18.578;2022-12-18T04:48:14;15.43;;;5.87;;
35993;SDS011;22066;54.274;18.578;2022-12-18T04:50:40;18.77;;;6.47;;
35993;SDS011;22066;54.274;18.578;2022-12-18T04:53:06;15.97;;;5.63;;
35993;SDS011;22066;54.274;18.578;2022-12-18T04:55:32;15.07;;;6.30;;
35993;SDS011;22066;54.274;18.578;2022-12-18T04:57:58;19.20;;;5.90;;
35993;SDS011;22066;54.274;18.578;2022-12-18T05:00:25;15.50;;;6.07;;
35993;SDS011;22066;54.274;18.578;2022-12-18T05:02:51;16.73;;;5.80;;
35993;SDS011;22066;54.274;18.578;2022-12-18T05:05:17;20.20;;;6.77;;
35993;SDS011;22066;54.274;18.578;2022-12-18T05:07:43;19.93;;;7.93;;
35993;SDS011;22066;54.274;18.578;2022-12-18T05:10:09;20.63;;;5.73;;
35993;SDS011;22066;54.274;18.578;2022-12-18T05:12:35;19.97;;;6.47;;
35993;SDS011;22066;54.274;18.578;2022-12-18T05:15:21;17.43;;;5.57;;
35993;SDS011;22066;54.274;18.578;2022-12-18T05:17:47;16.60;;;5.90;;
35993;SDS011;22066;54.274;18.578;2022-12-18T05:20:13;18.87;;;5.70;;
35993;SDS011;22066;54.274;18.578;2022-12-18T05:22:40;21.60;;;6.07;;
35993;SDS011;22066;54.274;18.578;2022-12-18T05:25:06;17.83;;;5.43;;
35993;SDS011;22066;54.274;18.578;2022-12-18T05:27:32;14.97;;;5.80;;
35993;SDS011;22066;54.274;18.578;2022-12-18T05:29:58;13.10;;;5.80;;
35993;SDS011;22066;54.274;18.578;2022-12-18T05:32:24;15.00;;;5.23;;
35993;SDS011;22066;54.274;18.578;2022-12-18T05:34:50;19.63;;;6.70;;
35993;SDS011;22066;54.274;18.578;2022-12-18T05:37:16;21.03;;;5.43;;
35993;SDS011;22066;54.274;18.578;2022-12-18T05:39:42;15.03;;;5.20;;
35993;SDS011;22066;54.274;18.578;2022-12-18T05:42:09;13.27;;;4.23;;
35993;SDS011;22066;54.274;18.578;2022-12-18T05:44:35;13.47;;;5.13;;
35993;SDS011;22066;54.274;18.578;2022-12-18T05:47:01;14.37;;;4.47;;
35993;SDS011;22066;54.274;18.578;2022-12-18T05:49:27;14.87;;;5.53;;
35993;SDS011;22066;54.274;18.578;2022-12-18T05:51:53;10.63;;;3.90;;
35993;SDS011;22066;54.274;18.578;2022-12-18T05:54:19;12.33;;;3.70;;
35993;SDS011;22066;54.274;18.578;2022-12-18T05:56:45;6.97;;;3.53;;
35993;SDS011;22066;54.274;18.578;2022-12-18T05:59:11;10.97;;;4.30;;
35993;SDS011;22066;54.274;18.578;2022-12-18T06:01:37;14.17;;;4.50;;
35993;SDS011;22066;54.274;18.578;2022-12-18T06:04:03;11.20;;;4.17;;
35993;SDS011;22066;54.274;18.578;2022-12-18T06:06:29;9.17;;;3.53;;
35993;SDS011;22066;54.274;18.578;2022-12-18T06:08:55;13.37;;;3.57;;
35993;SDS011;22066;54.274;18.578;2022-12-18T06:11:25;9.43;;;4.47;;
35993;SDS011;22066;54.274;18.578;2022-12-18T06:13:52;15.80;;;7.33;;
35993;SDS011;22066;54.274;18.578;2022-12-18T06:16:18;18.20;;;7.57;;
35993;SDS011;22066;54.274;18.578;2022-12-18T06:18:44;11.73;;;5.37;;
35993;SDS011;22066;54.274;18.578;2022-12-18T06:21:11;14.87;;;5.83;;
35993;SDS011;22066;54.274;18.578;2022-12-18T06:23:37;15.53;;;6.03;;
35993;SDS011;22066;54.274;18.578;2022-12-18T06:26:06;13.37;;;4.77;;
35993;SDS011;22066;54.274;18.578;2022-12-18T06:28:32;14.60;;;5.07;;
35993;SDS011;22066;54.274;18.578;2022-12-18T06:30:58;13.20;;;4.83;;
35993;SDS011;22066;54.274;18.578;2022-12-18T06:33:25;14.83;;;5.63;;
35993;SDS011;22066;54.274;18.578;2022-12-18T06:35:52;12.80;;;4.67;;
35993;SDS011;22066;54.274;18.578;2022-12-18T06:38:18;12.70;;;4.87;;
35993;SDS011;22066;54.274;18.578;2022-12-18T06:40:44;14.73;;;5.33;;
35993;SDS011;22066;54.274;18.578;2022-12-18T06:43:10;16.20;;;6.17;;
35993;SDS011;22066;54.274;18.578;2022-12-18T06:45:36;15.03;;;6.33;;
35993;SDS011;22066;54.274;18.578;2022-12-18T06:48:02;18.13;;;7.33;;
35993;SDS011;22066;54.274;18.578;2022-12-18T06:50:28;23.73;;;8.17;;
35993;SDS011;22066;54.274;18.578;2022-12-18T06:52:54;22.03;;;8.13;;
35993;SDS011;22066;54.274;18.578;2022-12-18T06:55:20;28.90;;;8.60;;
35993;SDS011;22066;54.274;18.578;2022-12-18T06:57:46;22.70;;;8.00;;
35993;SDS011;22066;54.274;18.578;2022-12-18T07:00:12;19.83;;;6.77;;
35993;SDS011;22066;54.274;18.578;2022-12-18T07:02:38;15.20;;;7.00;;
35993;SDS011;22066;54.274;18.578;2022-12-18T07:05:05;21.10;;;8.03;;
35993;SDS011;22066;54.274;18.578;2022-12-18T07:07:32;20.53;;;7.50;;
35993;SDS011;22066;54.274;18.578;2022-12-18T07:09:58;20.43;;;6.13;;
35993;SDS011;22066;54.274;18.578;2022-12-18T07:12:26;11.23;;;5.43;;
35993;SDS011;22066;54.274;18.578;2022-12-18T07:14:52;17.35;;;5.22;;
35993;SDS011;22066;54.274;18.578;2022-12-18T07:17:18;18.37;;;5.47;;
35993;SDS011;22066;54.274;18.578;2022-12-18T07:19:44;14.37;;;5.33;;
35993;SDS011;22066;54.274;18.578;2022-12-18T07:22:10;9.97;;;4.70;;
35993;SDS011;22066;54.274;18.578;2022-12-18T07:24:36;11.83;;;4.70;;
35993;SDS011;22066;54.274;18.578;2022-12-18T07:27:02;13.00;;;4.77;;
35993;SDS011;22066;54.274;18.578;2022-12-18T07:29:28;16.70;;;6.70;;
35993;SDS011;22066;54.274;18.578;2022-12-18T07:31:54;18.63;;;6.63;;
35993;SDS011;22066;54.274;18.578;2022-12-18T07:34:20;15.87;;;6.80;;
35993;SDS011;22066;54.274;18.578;2022-12-18T07:36:47;23.47;;;6.50;;
35993;SDS011;22066;54.274;18.578;2022-12-18T07:39:13;24.97;;;7.27;;
35993;SDS011;22066;54.274;18.578;2022-12-18T07:41:39;35.43;;;8.90;;
35993;SDS011;22066;54.274;18.578;2022-12-18T07:44:10;45.30;;;10.80;;
35993;SDS011;22066;54.274;18.578;2022-12-18T07:46:37;46.40;;;13.80;;
35993;SDS011;22066;54.274;18.578;2022-12-18T07:49:03;76.23;;;17.27;;
35993;SDS011;22066;54.274;18.578;2022-12-18T07:51:29;49.77;;;16.83;;
35993;SDS011;22066;54.274;18.578;2022-12-18T07:53:56;66.97;;;18.50;;
35993;SDS011;22066;54.274;18.578;2022-12-18T07:56:22;80.20;;;22.97;;
35993;SDS011;22066;54.274;18.578;2022-12-18T07:58:48;74.83;;;20.33;;
35993;SDS011;22066;54.274;18.578;2022-12-18T08:01:14;77.73;;;21.67;;
35993;SDS011;22066;54.274;18.578;2022-12-18T08:03:40;52.37;;;17.47;;
35993;SDS011;22066;54.274;18.578;2022-12-18T08:06:07;62.10;;;17.17;;
35993;SDS011;22066;54.274;18.578;2022-12-18T08:08:34;34.65;;;10.88;;
35993;SDS011;22066;54.274;18.578;2022-12-18T08:11:00;61.20;;;16.83;;
35993;SDS011;22066;54.274;18.578;2022-12-18T08:13:27;60.60;;;18.47;;
35993;SDS011;22066;54.274;18.578;2022-12-18T08:15:56;59.03;;;16.70;;
35993;SDS011;22066;54.274;18.578;2022-12-18T08:18:23;68.13;;;16.57;;
35993;SDS011;22066;54.274;18.578;2022-12-18T08:20:49;47.20;;;15.70;;
35993;SDS011;22066;54.274;18.578;2022-12-18T08:23:15;36.30;;;11.17;;
35993;SDS011;22066;54.274;18.578;2022-12-18T08:25:41;28.23;;;9.90;;
35993;SDS011;22066;54.274;18.578;2022-12-18T08:28:07;23.53;;;7.80;;
35993;SDS011;22066;54.274;18.578;2022-12-18T08:30:33;21.83;;;8.33;;
35993;SDS011;22066;54.274;18.578;2022-12-18T08:32:59;19.43;;;7.87;;
35993;SDS011;22066;54.274;18.578;2022-12-18T08:35:25;19.60;;;7.37;;
35993;SDS011;22066;54.274;18.578;2022-12-18T08:37:52;14.70;;;7.00;;
35993;SDS011;22066;54.274;18.578;2022-12-18T08:40:18;20.47;;;7.97;;
35993;SDS011;22066;54.274;18.578;2022-12-18T08:42:44;17.17;;;7.03;;
35993;SDS011;22066;54.274;18.578;2022-12-18T08:45:29;17.63;;;6.93;;
35993;SDS011;22066;54.274;18.578;2022-12-18T08:47:55;17.30;;;7.53;;
35993;SDS011;22066;54.274;18.578;2022-12-18T08:50:21;16.53;;;7.10;;
35993;SDS011;22066;54.274;18.578;2022-12-18T08:52:47;18.53;;;7.20;;
35993;SDS011;22066;54.274;18.578;2022-12-18T08:55:13;16.83;;;7.03;;
35993;SDS011;22066;54.274;18.578;2022-12-18T08:57:40;17.67;;;7.20;;
35993;SDS011;22066;54.274;18.578;2022-12-18T09:00:06;15.10;;;6.50;;
35993;SDS011;22066;54.274;18.578;2022-12-18T09:02:32;15.37;;;5.83;;
35993;SDS011;22066;54.274;18.578;2022-12-18T09:04:58;14.30;;;5.87;;
35993;SDS011;22066;54.274;18.578;2022-12-18T09:07:27;16.10;;;5.87;;
35993;SDS011;22066;54.274;18.578;2022-12-18T09:09:54;17.63;;;5.57;;
35993;SDS011;22066;54.274;18.578;2022-12-18T09:12:20;14.87;;;6.10;;
35993;SDS011;22066;54.274;18.578;2022-12-18T09:14:46;14.70;;;7.07;;
35993;SDS011;22066;54.274;18.578;2022-12-18T09:17:12;14.10;;;5.63;;
35993;SDS011;22066;54.274;18.578;2022-12-18T09:19:38;13.40;;;5.63;;
35993;SDS011;22066;54.274;18.578;2022-12-18T09:22:05;16.57;;;6.27;;
35993;SDS011;22066;54.274;18.578;2022-12-18T09:24:31;16.97;;;6.80;;
35993;SDS011;22066;54.274;18.578;2022-12-18T09:26:57;20.60;;;6.20;;
35993;SDS011;22066;54.274;18.578;2022-12-18T09:29:23;18.37;;;6.57;;
35993;SDS011;22066;54.274;18.578;2022-12-18T09:31:49;15.13;;;6.10;;
35993;SDS011;22066;54.274;18.578;2022-12-18T09:34:16;12.83;;;5.87;;
35993;SDS011;22066;54.274;18.578;2022-12-18T09:36:42;17.23;;;7.03;;
35993;SDS011;22066;54.274;18.578;2022-12-18T09:39:08;14.67;;;6.50;;
35993;SDS011;22066;54.274;18.578;2022-12-18T09:41:44;21.73;;;7.70;;
35993;SDS011;22066;54.274;18.578;2022-12-18T09:47:07;17.40;;;7.17;;
35993;SDS011;22066;54.274;18.578;2022-12-18T09:49:36;19.50;;;6.73;;
35993;SDS011;22066;54.274;18.578;2022-12-18T09:52:25;17.20;;;6.90;;
35993;SDS011;22066;54.274;18.578;2022-12-18T09:55:11;15.47;;;6.07;;
35993;SDS011;22066;54.274;18.578;2022-12-18T09:57:36;19.13;;;7.00;;
35993;SDS011;22066;54.274;18.578;2022-12-18T10:00:15;13.33;;;5.50;;
35993;SDS011;22066;54.274;18.578;2022-12-18T10:02:42;14.07;;;6.20;;
35993;SDS011;22066;54.274;18.578;2022-12-18T10:05:19;13.10;;;5.87;;
35993;SDS011;22066;54.274;18.578;2022-12-18T10:08:00;20.52;;;6.45;;
35993;SDS011;22066;54.274;18.578;2022-12-18T10:13:06;19.27;;;6.83;;
35993;SDS011;22066;54.274;18.578;2022-12-18T10:15:36;16.17;;;5.97;;
35993;SDS011;22066;54.274;18.578;2022-12-18T10:18:13;14.13;;;5.67;;
35993;SDS011;22066;54.274;18.578;2022-12-18T10:20:43;17.40;;;6.03;;
35993;SDS011;22066;54.274;18.578;2022-12-18T10:25:48;20.53;;;6.93;;
35993;SDS011;22066;54.274;18.578;2022-12-18T10:28:16;14.17;;;5.10;;
35993;SDS011;22066;54.274;18.578;2022-12-18T10:30:43;14.33;;;5.70;;
35993;SDS011;22066;54.274;18.578;2022-12-18T10:33:11;15.87;;;6.00;;
35993;SDS011;22066;54.274;18.578;2022-12-18T10:35:37;21.35;;;6.28;;
35993;SDS011;22066;54.274;18.578;2022-12-18T10:43:14;17.10;;;6.00;;
35993;SDS011;22066;54.274;18.578;2022-12-18T10:45:41;16.97;;;6.97;;
35993;SDS011;22066;54.274;18.578;2022-12-18T10:48:18;22.30;;;6.63;;
35993;SDS011;22066;54.274;18.578;2022-12-18T10:50:46;17.43;;;6.70;;
35993;SDS011;22066;54.274;18.578;2022-12-18T10:53:15;15.33;;;6.83;;
35993;SDS011;22066;54.274;18.578;2022-12-18T10:55:44;18.37;;;7.07;;
35993;SDS011;22066;54.274;18.578;2022-12-18T11:01:01;13.60;;;6.07;;
35993;SDS011;22066;54.274;18.578;2022-12-18T11:03:29;15.93;;;5.77;;
35993;SDS011;22066;54.274;18.578;2022-12-18T11:06:02;14.60;;;4.90;;
35993;SDS011;22066;54.274;18.578;2022-12-18T11:08:29;16.07;;;5.17;;
35993;SDS011;22066;54.274;18.578;2022-12-18T11:10:55;11.53;;;4.47;;
35993;SDS011;22066;54.274;18.578;2022-12-18T11:13:22;12.90;;;5.17;;
35993;SDS011;22066;54.274;18.578;2022-12-18T11:15:49;13.55;;;5.30;;
35993;SDS011;22066;54.274;18.578;2022-12-18T11:18:20;13.37;;;4.50;;
35993;SDS011;22066;54.274;18.578;2022-12-18T11:20:58;13.17;;;4.93;;
35993;SDS011;22066;54.274;18.578;2022-12-18T11:23:25;10.32;;;4.00;;
35993;SDS011;22066;54.274;18.578;2022-12-18T11:25:53;14.50;;;5.10;;
35993;SDS011;22066;54.274;18.578;2022-12-18T11:33:37;13.03;;;4.67;;
35993;SDS011;22066;54.274;18.578;2022-12-18T11:36:04;18.53;;;6.77;;
35993;SDS011;22066;54.274;18.578;2022-12-18T11:38:37;20.57;;;7.17;;
35993;SDS011;22066;54.274;18.578;2022-12-18T11:44:09;16.80;;;5.60;;
35993;SDS011;22066;54.274;18.578;2022-12-18T11:46:38;13.65;;;5.28;;
35993;SDS011;22066;54.274;18.578;2022-12-18T11:51:35;12.83;;;5.40;;
35993;SDS011;22066;54.274;18.578;2022-12-18T11:54:15;16.07;;;5.60;;
35993;SDS011;22066;54.274;18.578;2022-12-18T11:56:46;13.07;;;5.17;;
35993;SDS011;22066;54.274;18.578;2022-12-18T11:59:26;14.00;;;5.30;;
35993;SDS011;22066;54.274;18.578;2022-12-18T12:01:58;15.03;;;5.40;;
35993;SDS011;22066;54.274;18.578;2022-12-18T12:09:34;16.98;;;6.28;;
35993;SDS011;22066;54.274;18.578;2022-12-18T12:22:20;17.30;;;6.80;;
35993;SDS011;22066;54.274;18.578;2022-12-18T12:25:01;13.10;;;5.30;;
35993;SDS011;22066;54.274;18.578;2022-12-18T12:40:30;16.65;;;6.32;;
35993;SDS011;22066;54.274;18.578;2022-12-18T12:42:58;15.00;;;5.65;;
35993;SDS011;22066;54.274;18.578;2022-12-18T12:48:37;11.90;;;5.25;;
35993;SDS011;22066;54.274;18.578;2022-12-18T12:51:02;16.38;;;5.82;;
35993;SDS011;22066;54.274;18.578;2022-12-18T12:53:31;14.57;;;5.70;;
35993;SDS011;22066;54.274;18.578;2022-12-18T12:55:58;12.60;;;5.22;;
35993;SDS011;22066;54.274;18.578;2022-12-18T13:00:56;14.55;;;5.82;;
35993;SDS011;22066;54.274;18.578;2022-12-18T13:05:50;14.50;;;6.70;;
35993;SDS011;22066;54.274;18.578;2022-12-18T13:08:25;16.58;;;6.32;;
35993;SDS011;22066;54.274;18.578;2022-12-18T13:10:52;15.85;;;5.68;;
35993;SDS011;22066;54.274;18.578;2022-12-18T13:13:49;15.10;;;6.95;;
35993;SDS011;22066;54.274;18.578;2022-12-18T13:16:17;14.30;;;5.30;;
35993;SDS011;22066;54.274;18.578;2022-12-18T13:18:54;16.33;;;5.80;;
35993;SDS011;22066;54.274;18.578;2022-12-18T13:23:49;13.30;;;5.30;;
35993;SDS011;22066;54.274;18.578;2022-12-18T13:31:13;13.77;;;6.03;;
35993;SDS011;22066;54.274;18.578;2022-12-18T13:33:41;14.50;;;5.77;;
35993;SDS011;22066;54.274;18.578;2022-12-18T13:36:26;10.40;;;4.30;;
35993;SDS011;22066;54.274;18.578;2022-12-18T13:41:37;15.67;;;5.57;;
35993;SDS011;22066;54.274;18.578;2022-12-18T13:44:19;12.13;;;5.53;;
35993;SDS011;22066;54.274;18.578;2022-12-18T13:46:48;13.93;;;5.00;;
35993;SDS011;22066;54.274;18.578;2022-12-18T13:51:46;16.93;;;6.03;;
35993;SDS011;22066;54.274;18.578;2022-12-18T13:56:46;14.57;;;5.30;;
35993;SDS011;22066;54.274;18.578;2022-12-18T13:59:13;13.03;;;5.17;;
35993;SDS011;22066;54.274;18.578;2022-12-18T14:02:00;8.82;;;3.55;;
35993;SDS011;22066;54.274;18.578;2022-12-18T14:04:27;11.97;;;4.80;;
35993;SDS011;22066;54.274;18.578;2022-12-18T14:09:30;14.60;;;6.00;;
35993;SDS011;22066;54.274;18.578;2022-12-18T14:11:56;10.70;;;3.72;;
35993;SDS011;22066;54.274;18.578;2022-12-18T14:14:46;14.70;;;5.07;;
35993;SDS011;22066;54.274;18.578;2022-12-18T14:17:12;17.60;;;5.63;;
35993;SDS011;22066;54.274;18.578;2022-12-18T14:19:43;13.10;;;4.73;;
35993;SDS011;22066;54.274;18.578;2022-12-18T14:22:24;16.40;;;5.77;;
35993;SDS011;22066;54.274;18.578;2022-12-18T14:25:05;13.83;;;5.37;;
35993;SDS011;22066;54.274;18.578;2022-12-18T14:27:36;14.77;;;5.43;;
35993;SDS011;22066;54.274;18.578;2022-12-18T14:30:18;19.33;;;6.60;;
35993;SDS011;22066;54.274;18.578;2022-12-18T14:35:26;19.05;;;5.45;;
35993;SDS011;22066;54.274;18.578;2022-12-18T14:37:59;12.93;;;5.57;;
35993;SDS011;22066;54.274;18.578;2022-12-18T14:40:33;15.93;;;5.93;;
35993;SDS011;22066;54.274;18.578;2022-12-18T14:42:59;17.33;;;6.27;;
35993;SDS011;22066;54.274;18.578;2022-12-18T14:48:07;18.93;;;6.63;;
35993;SDS011;22066;54.274;18.578;2022-12-18T14:50:33;24.63;;;10.17;;
35993;SDS011;22066;54.274;18.578;2022-12-18T14:52:59;22.73;;;7.80;;
35993;SDS011;22066;54.274;18.578;2022-12-18T14:55:25;21.43;;;7.20;;
35993;SDS011;22066;54.274;18.578;2022-12-18T14:57:52;22.13;;;8.00;;
35993;SDS011;22066;54.274;18.578;2022-12-18T15:00:21;31.95;;;14.15;;
35993;SDS011;22066;54.274;18.578;2022-12-18T15:02:49;19.92;;;7.72;;
35993;SDS011;22066;54.274;18.578;2022-12-18T15:07:45;24.03;;;8.57;;
35993;SDS011;22066;54.274;18.578;2022-12-18T15:10:17;29.10;;;9.57;;
35993;SDS011;22066;54.274;18.578;2022-12-18T15:20:32;31.17;;;14.63;;
35993;SDS011;22066;54.274;18.578;2022-12-18T15:22:59;43.63;;;14.10;;
35993;SDS011;22066;54.274;18.578;2022-12-18T15:25:27;28.03;;;10.00;;
35993;SDS011;22066;54.274;18.578;2022-12-18T15:27:57;27.00;;;11.10;;
35993;SDS011;22066;54.274;18.578;2022-12-18T15:30:24;29.67;;;12.83;;
35993;SDS011;22066;54.274;18.578;2022-12-18T15:32:50;27.57;;;10.60;;
35993;SDS011;22066;54.274;18.578;2022-12-18T15:35:19;27.63;;;12.20;;
35993;SDS011;22066;54.274;18.578;2022-12-18T15:37:50;33.92;;;13.70;;
35993;SDS011;22066;54.274;18.578;2022-12-18T15:40:19;34.23;;;10.47;;
35993;SDS011;22066;54.274;18.578;2022-12-18T15:42:51;31.27;;;10.32;;
35993;SDS011;22066;54.274;18.578;2022-12-18T15:45:37;33.33;;;10.30;;
35993;SDS011;22066;54.274;18.578;2022-12-18T15:48:38;70.63;;;17.60;;
35993;SDS011;22066;54.274;18.578;2022-12-18T15:50:56;73.60;;;17.47;;
35993;SDS011;22066;54.274;18.578;2022-12-18T15:53:24;74.33;;;19.33;;
35993;SDS011;22066;54.274;18.578;2022-12-18T15:55:50;128.67;;;30.90;;
35993;SDS011;22066;54.274;18.578;2022-12-18T15:58:34;58.03;;;19.20;;
35993;SDS011;22066;54.274;18.578;2022-12-18T16:01:01;70.43;;;26.33;;
35993;SDS011;22066;54.274;18.578;2022-12-18T16:03:28;54.57;;;20.90;;
35993;SDS011;22066;54.274;18.578;2022-12-18T16:05:55;51.60;;;19.23;;
35993;SDS011;22066;54.274;18.578;2022-12-18T16:08:23;48.72;;;14.55;;
35993;SDS011;22066;54.274;18.578;2022-12-18T16:10:49;99.20;;;31.10;;
35993;SDS011;22066;54.274;18.578;2022-12-18T16:13:15;86.10;;;23.03;;
35993;SDS011;22066;54.274;18.578;2022-12-18T16:15:42;72.63;;;21.10;;
35993;SDS011;22066;54.274;18.578;2022-12-18T16:18:08;89.30;;;24.37;;
35993;SDS011;22066;54.274;18.578;2022-12-18T16:20:34;148.83;;;35.10;;
35993;SDS011;22066;54.274;18.578;2022-12-18T16:23:05;59.00;;;21.40;;
35993;SDS011;22066;54.274;18.578;2022-12-18T16:25:32;34.23;;;12.60;;